createdAt,value
2017-06-25T12:21:57.098Z,935.62
2017-06-25T12:29:26.974Z,935.64
2017-06-25T12:30:40.178Z,935.65
2017-06-25T12:31:53.424Z,935.67
2017-06-25T12:33:06.666Z,935.64
2017-06-25T12:34:19.891Z,935.59
2017-06-25T12:35:55.618Z,935.68
2017-06-25T12:37:22.074Z,935.75
2017-06-25T12:38:34.825Z,935.73
2017-06-25T12:39:48.059Z,935.79
2017-06-25T12:41:47.212Z,935.81
2017-06-25T12:43:30.462Z,935.8
2017-06-25T12:45:14.861Z,935.84
2017-06-25T12:46:58.745Z,935.88
2017-06-25T12:48:11.501Z,935.84
2017-06-25T12:49:24.735Z,935.77
2017-06-25T12:50:38.003Z,935.82
2017-06-25T12:51:52.883Z,935.86
2017-06-25T12:55:56.945Z,935.78
2017-06-25T12:57:10.169Z,935.85
2017-06-25T12:58:58.449Z,935.82
2017-06-25T13:01:28.294Z,935.8
2017-06-25T13:02:46.932Z,935.84
2017-06-25T13:03:59.653Z,935.86
2017-06-25T13:05:12.906Z,935.84
2017-06-25T13:06:44.449Z,935.82
2017-06-25T13:09:00.452Z,935.83
2017-06-25T13:11:09.325Z,935.81
2017-06-25T13:13:55.132Z,935.76
2017-06-25T13:19:21.280Z,935.73
2017-06-25T13:22:05.663Z,935.77
2017-06-25T13:27:17.883Z,935.77
2017-06-25T19:12:43.957Z,932.43
2017-06-25T19:14:54.068Z,932.51
2017-06-25T19:18:11.967Z,932.53
2017-06-25T19:19:28.855Z,932.46
2017-06-25T19:25:18.787Z,932.5
2017-06-25T19:26:37.663Z,932.5
2017-06-25T19:28:12.537Z,932.56
2017-06-25T19:29:52.923Z,932.53
2017-06-25T19:31:06.207Z,932.51
2017-06-25T19:32:34.650Z,932.53
2017-06-25T19:34:23.242Z,932.57
2017-06-25T19:36:15.912Z,932.51
2017-06-25T19:39:25.429Z,932.57
2017-06-25T19:41:23.048Z,932.61
2017-06-25T19:43:03.660Z,932.53
2017-06-25T19:45:49.767Z,932.54
2017-06-25T19:50:14.699Z,932.5
2017-06-25T19:51:36.450Z,932.56
2017-06-25T19:54:03.672Z,932.57
2017-06-25T19:55:16.904Z,932.58
2017-06-25T19:58:33.851Z,932.47
2017-06-25T20:03:14.683Z,932.54
2017-06-25T20:16:28.259Z,932.64
2017-06-25T20:17:59.059Z,932.66
2017-06-25T20:20:29.911Z,932.67
2017-06-25T20:21:49.425Z,932.64
2017-06-25T20:25:35.773Z,932.67
2017-06-25T20:30:45.969Z,932.8
2017-06-25T20:34:35.449Z,932.9
2017-06-25T20:42:10.279Z,932.9
2017-06-25T20:44:13.337Z,932.83
2017-06-25T20:47:47.599Z,933
2017-06-25T20:48:59.785Z,932.98
2017-06-25T20:50:13.618Z,932.91
2017-06-25T20:51:26.352Z,932.97
2017-06-25T20:52:39.573Z,932.96
2017-06-25T20:53:52.302Z,932.95
2017-06-25T20:55:36.689Z,932.94
2017-06-25T20:56:49.379Z,932.98
2017-06-25T20:58:02.621Z,932.95
2017-06-25T20:59:15.805Z,932.97
2017-06-25T21:00:29.051Z,932.98
2017-06-25T21:01:42.305Z,932.93
2017-06-25T21:02:54.638Z,932.95
2017-06-25T21:04:07.447Z,932.93
2017-06-25T21:05:20.756Z,932.82
2017-06-25T21:06:33.987Z,932.93
2017-06-25T21:07:47.217Z,932.89
2017-06-25T21:09:00.454Z,932.96
2017-06-25T21:10:13.676Z,932.95
2017-06-25T21:11:26.402Z,933
2017-06-25T21:12:39.590Z,933.01
2017-06-25T21:13:52.816Z,932.98
2017-06-25T21:15:06.054Z,933.02
2017-06-25T21:16:18.262Z,933.03
2017-06-25T21:17:30.935Z,933.07
2017-06-25T21:18:44.199Z,933.06
2017-06-25T21:23:31.264Z,933.13
2017-06-25T21:25:02.231Z,933.12
2017-06-25T21:26:15.482Z,933.16
2017-06-25T21:28:19.963Z,933.13
2017-06-25T21:30:34.773Z,933.13
2017-06-25T21:32:08.273Z,933.14
2017-06-25T21:33:20.455Z,933.14
2017-06-25T21:34:33.698Z,933.17
2017-06-25T21:35:46.917Z,933.13
2017-06-25T21:36:58.696Z,933.07
2017-06-25T21:38:11.464Z,933.13
2017-06-25T21:39:24.698Z,933.09
2017-06-25T21:40:37.928Z,933.16
2017-06-25T21:41:51.135Z,933.12
2017-06-25T21:43:04.330Z,933.15
2017-06-25T21:44:17.560Z,933.18
2017-06-25T21:45:30.766Z,933.21
2017-06-25T21:47:14.662Z,933.12
2017-06-25T21:48:27.894Z,933.22
2017-06-25T21:49:40.611Z,933.2
2017-06-25T21:50:53.964Z,933.23
2017-06-25T21:52:07.200Z,933.32
2017-06-25T21:53:19.875Z,933.31
2017-06-25T21:55:04.254Z,933.33
2017-06-25T21:56:16.989Z,933.33
2017-06-25T21:57:30.217Z,933.38
2017-06-25T21:58:43.427Z,933.34
2017-06-25T21:59:56.636Z,933.33
2017-06-25T22:01:08.836Z,933.33
2017-06-25T22:02:22.096Z,933.34
2017-06-25T22:03:34.812Z,933.36
2017-06-25T22:04:48.048Z,933.37
2017-06-25T22:06:00.228Z,933.36
2017-06-25T22:07:13.438Z,933.38
2017-06-25T22:08:26.707Z,933.4
2017-06-25T22:09:39.419Z,933.41
2017-06-25T22:10:52.651Z,933.4
2017-06-25T22:12:05.348Z,933.38
2017-06-25T22:13:18.060Z,933.41
2017-06-25T22:14:31.300Z,933.4
2017-06-25T22:15:44.531Z,933.46
2017-06-25T22:16:57.756Z,933.45
2017-06-25T22:18:10.934Z,933.48
2017-06-25T22:19:24.183Z,933.46
2017-06-25T22:20:37.424Z,933.41
2017-06-25T22:21:50.679Z,933.53
2017-06-25T22:23:03.417Z,933.54
2017-06-25T22:24:16.163Z,933.55
2017-06-25T22:25:29.388Z,933.57
2017-06-25T22:26:42.624Z,933.56
2017-06-25T22:27:55.823Z,933.58
2017-06-25T22:29:09.068Z,933.58
2017-06-25T22:30:22.335Z,933.58
2017-06-25T22:31:35.551Z,933.64
2017-06-25T22:32:47.766Z,933.65
2017-06-25T22:34:00.507Z,933.63
2017-06-25T22:36:15.545Z,933.65
2017-06-25T22:37:27.757Z,933.57
2017-06-25T22:38:40.993Z,933.61
2017-06-25T22:39:54.218Z,933.73
2017-06-25T22:41:06.921Z,933.67
2017-06-25T22:42:19.638Z,933.68
2017-06-25T22:43:32.873Z,933.72
2017-06-25T22:45:16.768Z,933.78
2017-06-25T22:46:29.476Z,933.77
2017-06-25T22:47:42.724Z,933.83
2017-06-25T22:48:55.560Z,933.86
2017-06-25T22:51:53.187Z,933.94
2017-06-25T22:53:06.361Z,933.94
2017-06-25T22:54:19.759Z,933.9
2017-06-25T22:56:04.180Z,933.9
2017-06-25T22:57:48.598Z,933.85
2017-06-25T22:59:01.287Z,933.89
2017-06-25T23:00:14.534Z,933.96
2017-06-25T23:01:27.775Z,934.01
2017-06-25T23:02:40.980Z,933.99
2017-06-25T23:03:54.199Z,934.01
2017-06-25T23:05:07.419Z,934.01
2017-06-25T23:06:20.671Z,933.97
2017-06-25T23:07:34.028Z,934.04
2017-06-25T23:08:47.294Z,934.04
2017-06-25T23:10:00.465Z,934.1
2017-06-25T23:11:13.657Z,934.06
2017-06-25T23:12:26.876Z,934.13
2017-06-25T23:13:40.072Z,934.14
2017-06-25T23:14:53.420Z,934.16
2017-06-25T23:16:06.123Z,934.14
2017-06-25T23:17:18.825Z,934.18
2017-06-25T23:18:32.027Z,934.21
2017-06-25T23:19:45.382Z,934.21
2017-06-25T23:21:29.747Z,934.18
2017-06-25T23:22:42.983Z,934.26
2017-06-25T23:23:56.227Z,934.28
2017-06-25T23:25:09.437Z,934.25
2017-06-25T23:26:22.805Z,934.24
2017-06-25T23:27:35.528Z,934.26
2017-06-25T23:28:48.720Z,934.28
2017-06-25T23:30:32.689Z,934.27
2017-06-25T23:31:45.462Z,934.33
2017-06-25T23:32:58.138Z,934.37
2017-06-25T23:34:41.995Z,934.35
2017-06-25T23:35:55.246Z,934.35
2017-06-25T23:37:08.463Z,934.38
2017-06-25T23:38:21.710Z,934.4
2017-06-25T23:39:34.942Z,934.37
2017-06-25T23:40:47.670Z,934.36
2017-06-25T23:42:00.870Z,934.37
2017-06-25T23:43:45.263Z,934.34
2017-06-25T23:46:42.852Z,934.36
2017-06-25T23:47:55.554Z,934.37
2017-06-25T23:49:07.239Z,934.31
2017-06-25T23:50:20.459Z,934.38
2017-06-25T23:51:33.706Z,934.32
2017-06-25T23:52:46.947Z,934.21
2017-06-25T23:54:00.152Z,934.31
2017-06-25T23:55:13.410Z,934.26
2017-06-25T23:56:26.145Z,934.31
2017-06-25T23:57:39.363Z,934.24
2017-06-25T23:58:52.613Z,934.28
